sensor_id;sensor_type;location;lat;lon;timestamp;P1;durP1;ratioP1;P2;durP2;ratioP2
39612;SDS011;25303;48.896;13.342;2022-10-15T00:00:10;17.33;;;10.38;;
39612;SDS011;25303;48.896;13.342;2022-10-15T00:02:54;40.53;;;12.82;;
39612;SDS011;25303;48.896;13.342;2022-10-15T00:05:37;38.75;;;9.32;;
39612;SDS011;25303;48.896;13.342;2022-10-15T00:08:20;115.60;;;12.63;;
39612;SDS011;25303;48.896;13.342;2022-10-15T00:11:04;60.55;;;12.45;;
39612;SDS011;25303;48.896;13.342;2022-10-15T00:13:51;46.97;;;11.38;;
39612;SDS011;25303;48.896;13.342;2022-10-15T00:16:35;64.13;;;11.48;;
39612;SDS011;25303;48.896;13.342;2022-10-15T00:19:17;32.25;;;11.68;;
39612;SDS011;25303;48.896;13.342;2022-10-15T00:22:00;48.50;;;11.57;;
39612;SDS011;25303;48.896;13.342;2022-10-15T00:24:43;30.10;;;11.10;;
39612;SDS011;25303;48.896;13.342;2022-10-15T00:27:26;108.20;;;11.68;;
39612;SDS011;25303;48.896;13.342;2022-10-15T00:30:11;24.15;;;11.13;;
39612;SDS011;25303;48.896;13.342;2022-10-15T00:32:54;24.48;;;10.18;;
39612;SDS011;25303;48.896;13.342;2022-10-15T00:35:37;143.38;;;11.40;;
39612;SDS011;25303;48.896;13.342;2022-10-15T00:38:21;194.30;;;12.15;;
39612;SDS011;25303;48.896;13.342;2022-10-15T00:41:04;377.40;;;16.45;;
39612;SDS011;25303;48.896;13.342;2022-10-15T00:43:49;20.70;;;9.45;;
39612;SDS011;25303;48.896;13.342;2022-10-15T00:46:37;277.67;;;12.50;;
39612;SDS011;25303;48.896;13.342;2022-10-15T00:49:23;21.95;;;8.55;;
39612;SDS011;25303;48.896;13.342;2022-10-15T00:52:10;77.40;;;11.52;;
39612;SDS011;25303;48.896;13.342;2022-10-15T00:54:57;115.85;;;9.98;;
39612;SDS011;25303;48.896;13.342;2022-10-15T00:57:43;40.13;;;9.43;;
39612;SDS011;25303;48.896;13.342;2022-10-15T01:00:28;157.68;;;9.98;;
39612;SDS011;25303;48.896;13.342;2022-10-15T01:03:14;186.75;;;10.90;;
39612;SDS011;25303;48.896;13.342;2022-10-15T01:05:57;109.30;;;8.73;;
39612;SDS011;25303;48.896;13.342;2022-10-15T01:08:40;333.65;;;13.07;;
39612;SDS011;25303;48.896;13.342;2022-10-15T01:11:27;212.30;;;10.60;;
39612;SDS011;25303;48.896;13.342;2022-10-15T01:14:22;97.28;;;9.77;;
39612;SDS011;25303;48.896;13.342;2022-10-15T01:17:16;218.98;;;10.40;;
39612;SDS011;25303;48.896;13.342;2022-10-15T01:20:12;198.43;;;9.43;;
39612;SDS011;25303;48.896;13.342;2022-10-15T01:26:50;216.30;;;13.05;;
39612;SDS011;25303;48.896;13.342;2022-10-15T01:29:58;370.35;;;14.48;;
39612;SDS011;25303;48.896;13.342;2022-10-15T01:36:12;268.30;;;13.48;;
39612;SDS011;25303;48.896;13.342;2022-10-15T01:39:01;170.07;;;8.77;;
39612;SDS011;25303;48.896;13.342;2022-10-15T01:41:52;252.70;;;12.23;;
39612;SDS011;25303;48.896;13.342;2022-10-15T01:44:43;194.77;;;9.27;;
39612;SDS011;25303;48.896;13.342;2022-10-15T01:47:39;156.93;;;8.88;;
39612;SDS011;25303;48.896;13.342;2022-10-15T01:50:32;23.30;;;8.77;;
39612;SDS011;25303;48.896;13.342;2022-10-15T01:53:18;158.68;;;10.57;;
39612;SDS011;25303;48.896;13.342;2022-10-15T01:56:08;50.47;;;7.63;;
39612;SDS011;25303;48.896;13.342;2022-10-15T01:58:54;80.93;;;8.40;;
39612;SDS011;25303;48.896;13.342;2022-10-15T02:01:40;125.20;;;7.77;;
39612;SDS011;25303;48.896;13.342;2022-10-15T02:04:29;208.30;;;10.48;;
39612;SDS011;25303;48.896;13.342;2022-10-15T02:07:14;209.18;;;11.20;;
39612;SDS011;25303;48.896;13.342;2022-10-15T02:10:06;313.33;;;11.23;;
39612;SDS011;25303;48.896;13.342;2022-10-15T02:13:01;365.17;;;12.13;;
39612;SDS011;25303;48.896;13.342;2022-10-15T02:15:56;199.55;;;9.52;;
39612;SDS011;25303;48.896;13.342;2022-10-15T02:18:45;133.82;;;9.50;;
39612;SDS011;25303;48.896;13.342;2022-10-15T02:21:34;296.48;;;11.60;;
39612;SDS011;25303;48.896;13.342;2022-10-15T02:24:24;383.20;;;13.88;;
39612;SDS011;25303;48.896;13.342;2022-10-15T02:27:10;44.08;;;10.18;;
39612;SDS011;25303;48.896;13.342;2022-10-15T02:29:56;27.75;;;7.75;;
39612;SDS011;25303;48.896;13.342;2022-10-15T02:32:42;433.98;;;13.43;;
39612;SDS011;25303;48.896;13.342;2022-10-15T02:35:28;112.10;;;8.55;;
39612;SDS011;25303;48.896;13.342;2022-10-15T02:38:12;46.15;;;9.60;;
39612;SDS011;25303;48.896;13.342;2022-10-15T02:40:59;275.17;;;12.13;;
39612;SDS011;25303;48.896;13.342;2022-10-15T02:43:43;102.40;;;7.82;;
39612;SDS011;25303;48.896;13.342;2022-10-15T02:46:26;264.85;;;10.13;;
39612;SDS011;25303;48.896;13.342;2022-10-15T02:49:09;415.73;;;12.95;;
39612;SDS011;25303;48.896;13.342;2022-10-15T02:51:52;113.82;;;8.20;;
39612;SDS011;25303;48.896;13.342;2022-10-15T02:54:35;65.28;;;8.30;;
39612;SDS011;25303;48.896;13.342;2022-10-15T02:57:19;46.33;;;7.93;;
39612;SDS011;25303;48.896;13.342;2022-10-15T03:00:04;218.35;;;9.63;;
39612;SDS011;25303;48.896;13.342;2022-10-15T03:02:49;38.53;;;6.25;;
39612;SDS011;25303;48.896;13.342;2022-10-15T03:05:33;43.75;;;6.28;;
39612;SDS011;25303;48.896;13.342;2022-10-15T03:08:16;100.65;;;6.70;;
39612;SDS011;25303;48.896;13.342;2022-10-15T03:10:59;57.35;;;7.38;;
39612;SDS011;25303;48.896;13.342;2022-10-15T03:13:44;84.25;;;7.85;;
39612;SDS011;25303;48.896;13.342;2022-10-15T03:16:27;26.73;;;6.32;;
39612;SDS011;25303;48.896;13.342;2022-10-15T03:19:10;13.40;;;5.68;;
39612;SDS011;25303;48.896;13.342;2022-10-15T03:21:54;132.43;;;5.30;;
39612;SDS011;25303;48.896;13.342;2022-10-15T03:24:38;135.93;;;6.97;;
39612;SDS011;25303;48.896;13.342;2022-10-15T03:27:21;232.68;;;7.90;;
39612;SDS011;25303;48.896;13.342;2022-10-15T03:30:07;84.93;;;6.57;;
39612;SDS011;25303;48.896;13.342;2022-10-15T03:32:51;16.40;;;4.80;;
39612;SDS011;25303;48.896;13.342;2022-10-15T03:35:35;176.13;;;7.18;;
39612;SDS011;25303;48.896;13.342;2022-10-15T03:38:18;99.93;;;6.15;;
39612;SDS011;25303;48.896;13.342;2022-10-15T03:43:52;85.75;;;6.05;;
39612;SDS011;25303;48.896;13.342;2022-10-15T03:46:36;24.13;;;3.90;;
39612;SDS011;25303;48.896;13.342;2022-10-15T03:49:19;130.23;;;5.95;;
39612;SDS011;25303;48.896;13.342;2022-10-15T03:52:02;9.98;;;3.67;;
39612;SDS011;25303;48.896;13.342;2022-10-15T03:54:46;95.25;;;6.50;;
39612;SDS011;25303;48.896;13.342;2022-10-15T03:57:32;42.50;;;4.72;;
39612;SDS011;25303;48.896;13.342;2022-10-15T04:00:19;21.65;;;3.80;;
39612;SDS011;25303;48.896;13.342;2022-10-15T04:03:05;97.20;;;4.85;;
39612;SDS011;25303;48.896;13.342;2022-10-15T04:05:50;94.63;;;4.80;;
39612;SDS011;25303;48.896;13.342;2022-10-15T04:08:39;132.77;;;5.10;;
39612;SDS011;25303;48.896;13.342;2022-10-15T04:11:36;42.45;;;5.82;;
39612;SDS011;25303;48.896;13.342;2022-10-15T04:17:03;247.05;;;8.15;;
39612;SDS011;25303;48.896;13.342;2022-10-15T04:19:48;338.67;;;11.07;;
39612;SDS011;25303;48.896;13.342;2022-10-15T04:22:31;78.30;;;6.20;;
39612;SDS011;25303;48.896;13.342;2022-10-15T04:27:58;477.17;;;12.70;;
39612;SDS011;25303;48.896;13.342;2022-10-15T04:30:41;76.85;;;6.10;;
39612;SDS011;25303;48.896;13.342;2022-10-15T04:33:26;295.52;;;8.85;;
39612;SDS011;25303;48.896;13.342;2022-10-15T04:36:13;173.57;;;6.97;;
39612;SDS011;25303;48.896;13.342;2022-10-15T04:39:05;124.13;;;7.57;;
39612;SDS011;25303;48.896;13.342;2022-10-15T04:41:56;31.77;;;5.40;;
39612;SDS011;25303;48.896;13.342;2022-10-15T04:44:42;226.77;;;7.50;;
39612;SDS011;25303;48.896;13.342;2022-10-15T04:47:26;841.97;;;17.40;;
39612;SDS011;25303;48.896;13.342;2022-10-15T04:50:21;343.80;;;8.00;;
39612;SDS011;25303;48.896;13.342;2022-10-15T04:53:24;254.73;;;6.30;;
39612;SDS011;25303;48.896;13.342;2022-10-15T04:56:08;83.00;;;4.22;;
39612;SDS011;25303;48.896;13.342;2022-10-15T04:58:54;211.80;;;6.00;;
39612;SDS011;25303;48.896;13.342;2022-10-15T05:01:40;477.23;;;9.38;;
39612;SDS011;25303;48.896;13.342;2022-10-15T05:04:24;19.70;;;2.67;;
39612;SDS011;25303;48.896;13.342;2022-10-15T05:07:07;307.08;;;6.32;;
39612;SDS011;25303;48.896;13.342;2022-10-15T05:09:52;474.75;;;9.48;;
39612;SDS011;25303;48.896;13.342;2022-10-15T05:12:35;63.75;;;3.40;;
39612;SDS011;25303;48.896;13.342;2022-10-15T05:15:19;177.93;;;5.38;;
39612;SDS011;25303;48.896;13.342;2022-10-15T05:18:02;33.78;;;2.83;;
39612;SDS011;25303;48.896;13.342;2022-10-15T05:20:54;201.60;;;4.93;;
39612;SDS011;25303;48.896;13.342;2022-10-15T05:23:42;127.65;;;3.88;;
39612;SDS011;25303;48.896;13.342;2022-10-15T05:26:38;86.38;;;2.60;;
39612;SDS011;25303;48.896;13.342;2022-10-15T05:29:22;24.13;;;2.35;;
39612;SDS011;25303;48.896;13.342;2022-10-15T05:32:06;80.93;;;3.15;;
39612;SDS011;25303;48.896;13.342;2022-10-15T05:34:49;127.22;;;3.58;;
39612;SDS011;25303;48.896;13.342;2022-10-15T05:37:32;26.98;;;1.90;;
39612;SDS011;25303;48.896;13.342;2022-10-15T05:40:15;119.13;;;2.70;;
39612;SDS011;25303;48.896;13.342;2022-10-15T05:43:16;148.45;;;4.03;;
39612;SDS011;25303;48.896;13.342;2022-10-15T05:46:01;421.52;;;7.45;;
39612;SDS011;25303;48.896;13.342;2022-10-15T05:48:46;146.27;;;3.10;;
39612;SDS011;25303;48.896;13.342;2022-10-15T05:51:30;19.90;;;1.40;;
39612;SDS011;25303;48.896;13.342;2022-10-15T05:54:21;17.45;;;1.50;;
39612;SDS011;25303;48.896;13.342;2022-10-15T05:57:04;117.45;;;2.42;;
39612;SDS011;25303;48.896;13.342;2022-10-15T05:59:49;36.25;;;1.70;;
39612;SDS011;25303;48.896;13.342;2022-10-15T06:02:31;39.45;;;1.77;;
39612;SDS011;25303;48.896;13.342;2022-10-15T06:05:14;127.13;;;2.88;;
39612;SDS011;25303;48.896;13.342;2022-10-15T06:07:57;55.67;;;2.33;;
39612;SDS011;25303;48.896;13.342;2022-10-15T06:10:40;25.88;;;1.70;;
39612;SDS011;25303;48.896;13.342;2022-10-15T06:13:24;68.28;;;1.58;;
39612;SDS011;25303;48.896;13.342;2022-10-15T06:16:14;32.80;;;1.50;;
39612;SDS011;25303;48.896;13.342;2022-10-15T06:19:04;141.38;;;3.13;;
39612;SDS011;25303;48.896;13.342;2022-10-15T06:21:47;69.78;;;2.63;;
39612;SDS011;25303;48.896;13.342;2022-10-15T06:24:30;61.38;;;2.17;;
39612;SDS011;25303;48.896;13.342;2022-10-15T06:27:12;33.75;;;1.33;;
39612;SDS011;25303;48.896;13.342;2022-10-15T06:29:55;88.07;;;3.33;;
39612;SDS011;25303;48.896;13.342;2022-10-15T06:32:40;35.05;;;1.90;;
39612;SDS011;25303;48.896;13.342;2022-10-15T06:35:28;15.88;;;1.02;;
39612;SDS011;25303;48.896;13.342;2022-10-15T06:38:13;46.88;;;1.55;;
39612;SDS011;25303;48.896;13.342;2022-10-15T06:40:56;26.70;;;1.55;;
39612;SDS011;25303;48.896;13.342;2022-10-15T06:43:39;1.92;;;0.98;;
39612;SDS011;25303;48.896;13.342;2022-10-15T06:46:22;8.45;;;1.20;;
39612;SDS011;25303;48.896;13.342;2022-10-15T06:49:07;14.00;;;1.50;;
39612;SDS011;25303;48.896;13.342;2022-10-15T06:51:51;92.15;;;2.15;;
39612;SDS011;25303;48.896;13.342;2022-10-15T06:54:34;224.85;;;4.28;;
39612;SDS011;25303;48.896;13.342;2022-10-15T06:57:17;8.18;;;0.90;;
39612;SDS011;25303;48.896;13.342;2022-10-15T07:00:00;27.98;;;1.40;;
39612;SDS011;25303;48.896;13.342;2022-10-15T07:02:43;19.63;;;1.50;;
39612;SDS011;25303;48.896;13.342;2022-10-15T07:05:27;6.35;;;1.08;;
39612;SDS011;25303;48.896;13.342;2022-10-15T07:08:10;1.08;;;0.80;;
39612;SDS011;25303;48.896;13.342;2022-10-15T07:11:00;19.38;;;1.13;;
39612;SDS011;25303;48.896;13.342;2022-10-15T07:13:44;78.00;;;2.53;;
39612;SDS011;25303;48.896;13.342;2022-10-15T07:16:27;22.98;;;1.45;;
39612;SDS011;25303;48.896;13.342;2022-10-15T07:19:10;36.75;;;2.05;;
39612;SDS011;25303;48.896;13.342;2022-10-15T07:21:54;39.58;;;4.10;;
39612;SDS011;25303;48.896;13.342;2022-10-15T07:24:38;27.00;;;4.10;;
39612;SDS011;25303;48.896;13.342;2022-10-15T07:27:21;47.25;;;3.00;;
39612;SDS011;25303;48.896;13.342;2022-10-15T07:30:06;34.70;;;4.13;;
39612;SDS011;25303;48.896;13.342;2022-10-15T07:35:33;43.15;;;2.58;;
39612;SDS011;25303;48.896;13.342;2022-10-15T07:38:17;7.30;;;1.42;;
39612;SDS011;25303;48.896;13.342;2022-10-15T07:41:00;18.67;;;3.00;;
39612;SDS011;25303;48.896;13.342;2022-10-15T07:43:45;6.43;;;2.38;;
39612;SDS011;25303;48.896;13.342;2022-10-15T07:46:28;2.25;;;1.20;;
39612;SDS011;25303;48.896;13.342;2022-10-15T07:49:11;1.50;;;0.73;;
39612;SDS011;25303;48.896;13.342;2022-10-15T07:51:56;0.90;;;0.70;;
39612;SDS011;25303;48.896;13.342;2022-10-15T07:54:42;0.93;;;0.82;;
39612;SDS011;25303;48.896;13.342;2022-10-15T07:57:27;1.90;;;1.20;;
39612;SDS011;25303;48.896;13.342;2022-10-15T08:00:11;0.90;;;0.70;;
39612;SDS011;25303;48.896;13.342;2022-10-15T08:02:54;1.70;;;1.10;;
39612;SDS011;25303;48.896;13.342;2022-10-15T08:05:36;1.42;;;0.98;;
39612;SDS011;25303;48.896;13.342;2022-10-15T08:08:19;0.65;;;0.57;;
39612;SDS011;25303;48.896;13.342;2022-10-15T08:11:05;0.70;;;0.50;;
39612;SDS011;25303;48.896;13.342;2022-10-15T08:13:48;2.75;;;0.70;;
39612;SDS011;25303;48.896;13.342;2022-10-15T08:16:33;4.47;;;2.72;;
39612;SDS011;25303;48.896;13.342;2022-10-15T08:19:16;4.15;;;2.78;;
39612;SDS011;25303;48.896;13.342;2022-10-15T08:22:02;2.78;;;2.10;;
39612;SDS011;25303;48.896;13.342;2022-10-15T08:24:45;2.15;;;1.63;;
39612;SDS011;25303;48.896;13.342;2022-10-15T08:27:30;2.70;;;1.67;;
39612;SDS011;25303;48.896;13.342;2022-10-15T08:30:17;1.58;;;1.30;;
39612;SDS011;25303;48.896;13.342;2022-10-15T08:33:00;0.93;;;0.68;;
39612;SDS011;25303;48.896;13.342;2022-10-15T08:35:43;0.65;;;0.60;;
39612;SDS011;25303;48.896;13.342;2022-10-15T08:38:26;0.60;;;0.50;;
39612;SDS011;25303;48.896;13.342;2022-10-15T08:41:13;0.50;;;0.50;;
39612;SDS011;25303;48.896;13.342;2022-10-15T08:44:08;0.57;;;0.57;;
39612;SDS011;25303;48.896;13.342;2022-10-15T08:46:58;0.50;;;0.40;;
39612;SDS011;25303;48.896;13.342;2022-10-15T08:49:48;0.40;;;0.30;;
39612;SDS011;25303;48.896;13.342;2022-10-15T08:52:39;0.30;;;0.20;;
39612;SDS011;25303;48.896;13.342;2022-10-15T08:55:26;1.02;;;0.30;;
39612;SDS011;25303;48.896;13.342;2022-10-15T08:58:16;0.20;;;0.13;;
39612;SDS011;25303;48.896;13.342;2022-10-15T09:01:06;0.20;;;0.10;;
39612;SDS011;25303;48.896;13.342;2022-10-15T09:04:00;0.32;;;0.10;;
39612;SDS011;25303;48.896;13.342;2022-10-15T09:06:49;0.10;;;0.10;;
39612;SDS011;25303;48.896;13.342;2022-10-15T09:09:38;0.10;;;0.10;;
39612;SDS011;25303;48.896;13.342;2022-10-15T09:12:33;0.25;;;0.20;;
39612;SDS011;25303;48.896;13.342;2022-10-15T09:15:24;0.10;;;0.10;;
39612;SDS011;25303;48.896;13.342;2022-10-15T09:18:16;0.03;;;0.03;;
39612;SDS011;25303;48.896;13.342;2022-10-15T09:21:03;0.10;;;0.10;;
39612;SDS011;25303;48.896;13.342;2022-10-15T09:26:32;1.45;;;0.10;;
39612;SDS011;25303;48.896;13.342;2022-10-15T09:29:29;0.20;;;0.20;;
39612;SDS011;25303;48.896;13.342;2022-10-15T09:32:19;0.20;;;0.10;;
39612;SDS011;25303;48.896;13.342;2022-10-15T09:35:12;0.38;;;0.10;;
39612;SDS011;25303;48.896;13.342;2022-10-15T09:38:00;0.10;;;0.05;;
39612;SDS011;25303;48.896;13.342;2022-10-15T09:40:56;0.13;;;0.10;;
39612;SDS011;25303;48.896;13.342;2022-10-15T09:43:57;0.15;;;0.10;;
39612;SDS011;25303;48.896;13.342;2022-10-15T09:46:51;0.20;;;0.20;;
39612;SDS011;25303;48.896;13.342;2022-10-15T09:49:34;0.10;;;0.10;;
39612;SDS011;25303;48.896;13.342;2022-10-15T09:52:20;0.00;;;0.00;;
39612;SDS011;25303;48.896;13.342;2022-10-15T09:55:17;0.30;;;0.20;;
39612;SDS011;25303;48.896;13.342;2022-10-15T09:58:15;0.40;;;0.15;;
39612;SDS011;25303;48.896;13.342;2022-10-15T10:01:03;0.22;;;0.13;;
39612;SDS011;25303;48.896;13.342;2022-10-15T10:03:50;0.25;;;0.20;;
39612;SDS011;25303;48.896;13.342;2022-10-15T10:06:41;0.20;;;0.20;;
39612;SDS011;25303;48.896;13.342;2022-10-15T10:09:30;0.20;;;0.20;;
39612;SDS011;25303;48.896;13.342;2022-10-15T10:12:17;0.30;;;0.10;;
39612;SDS011;25303;48.896;13.342;2022-10-15T10:15:04;1.45;;;0.10;;
39612;SDS011;25303;48.896;13.342;2022-10-15T10:18:04;0.40;;;0.20;;
39612;SDS011;25303;48.896;13.342;2022-10-15T10:20:53;0.20;;;0.20;;
39612;SDS011;25303;48.896;13.342;2022-10-15T10:23:39;0.20;;;0.20;;
39612;SDS011;25303;48.896;13.342;2022-10-15T10:26:23;0.30;;;0.22;;
39612;SDS011;25303;48.896;13.342;2022-10-15T10:29:06;0.45;;;0.30;;
39612;SDS011;25303;48.896;13.342;2022-10-15T10:32:08;0.43;;;0.30;;
39612;SDS011;25303;48.896;13.342;2022-10-15T10:34:53;0.35;;;0.20;;
39612;SDS011;25303;48.896;13.342;2022-10-15T10:37:39;0.30;;;0.30;;
39612;SDS011;25303;48.896;13.342;2022-10-15T10:40:26;0.40;;;0.30;;
39612;SDS011;25303;48.896;13.342;2022-10-15T10:43:20;0.30;;;0.30;;
39612;SDS011;25303;48.896;13.342;2022-10-15T10:46:16;0.32;;;0.32;;
39612;SDS011;25303;48.896;13.342;2022-10-15T10:49:02;0.20;;;0.20;;
39612;SDS011;25303;48.896;13.342;2022-10-15T10:51:47;0.30;;;0.30;;
39612;SDS011;25303;48.896;13.342;2022-10-15T10:54:31;0.60;;;0.50;;
39612;SDS011;25303;48.896;13.342;2022-10-15T10:57:16;1.33;;;0.40;;
39612;SDS011;25303;48.896;13.342;2022-10-15T11:00:13;1.05;;;0.90;;
39612;SDS011;25303;48.896;13.342;2022-10-15T11:03:01;1.75;;;1.10;;
39612;SDS011;25303;48.896;13.342;2022-10-15T11:05:45;2.17;;;1.48;;
39612;SDS011;25303;48.896;13.342;2022-10-15T11:08:32;1.67;;;1.05;;
39612;SDS011;25303;48.896;13.342;2022-10-15T11:11:24;1.00;;;0.80;;
39612;SDS011;25303;48.896;13.342;2022-10-15T11:14:14;0.70;;;0.68;;
39612;SDS011;25303;48.896;13.342;2022-10-15T11:17:09;0.50;;;0.50;;
39612;SDS011;25303;48.896;13.342;2022-10-15T11:20:02;1.50;;;0.60;;
39612;SDS011;25303;48.896;13.342;2022-10-15T11:23:16;2.28;;;1.25;;
39612;SDS011;25303;48.896;13.342;2022-10-15T11:26:12;3.55;;;1.60;;
39612;SDS011;25303;48.896;13.342;2022-10-15T11:29:08;2.42;;;1.50;;
39612;SDS011;25303;48.896;13.342;2022-10-15T11:32:00;1.80;;;1.27;;
39612;SDS011;25303;48.896;13.342;2022-10-15T11:35:04;1.40;;;1.00;;
39612;SDS011;25303;48.896;13.342;2022-10-15T11:38:22;2.10;;;1.70;;
39612;SDS011;25303;48.896;13.342;2022-10-15T11:41:19;2.03;;;1.30;;
39612;SDS011;25303;48.896;13.342;2022-10-15T11:44:27;1.20;;;1.00;;
39612;SDS011;25303;48.896;13.342;2022-10-15T11:47:33;0.70;;;0.70;;
39612;SDS011;25303;48.896;13.342;2022-10-15T11:50:26;0.45;;;0.40;;
39612;SDS011;25303;48.896;13.342;2022-10-15T11:53:18;1.30;;;0.60;;
39612;SDS011;25303;48.896;13.342;2022-10-15T11:56:33;0.90;;;0.68;;
39612;SDS011;25303;48.896;13.342;2022-10-15T11:59:25;0.88;;;0.68;;
39612;SDS011;25303;48.896;13.342;2022-10-15T12:02:16;1.38;;;0.98;;
39612;SDS011;25303;48.896;13.342;2022-10-15T12:05:06;2.25;;;0.80;;
39612;SDS011;25303;48.896;13.342;2022-10-15T12:07:51;0.80;;;0.60;;
39612;SDS011;25303;48.896;13.342;2022-10-15T12:10:38;0.50;;;0.43;;
39612;SDS011;25303;48.896;13.342;2022-10-15T12:13:35;0.60;;;0.60;;
39612;SDS011;25303;48.896;13.342;2022-10-15T12:16:24;0.52;;;0.52;;
39612;SDS011;25303;48.896;13.342;2022-10-15T12:19:12;0.50;;;0.50;;
39612;SDS011;25303;48.896;13.342;2022-10-15T12:22:01;0.70;;;0.70;;
39612;SDS011;25303;48.896;13.342;2022-10-15T12:24:53;1.43;;;0.70;;
39612;SDS011;25303;48.896;13.342;2022-10-15T12:27:36;9.50;;;0.90;;
39612;SDS011;25303;48.896;13.342;2022-10-15T12:30:28;0.90;;;0.80;;
39612;SDS011;25303;48.896;13.342;2022-10-15T12:33:22;0.80;;;0.77;;
39612;SDS011;25303;48.896;13.342;2022-10-15T12:36:19;1.10;;;1.00;;
39612;SDS011;25303;48.896;13.342;2022-10-15T12:39:18;1.08;;;0.88;;
39612;SDS011;25303;48.896;13.342;2022-10-15T12:42:26;1.80;;;1.38;;
39612;SDS011;25303;48.896;13.342;2022-10-15T12:45:18;1.67;;;1.50;;
39612;SDS011;25303;48.896;13.342;2022-10-15T12:54:40;1.60;;;1.38;;
39612;SDS011;25303;48.896;13.342;2022-10-15T13:00:34;1.90;;;1.70;;
39612;SDS011;25303;48.896;13.342;2022-10-15T13:03:21;1.63;;;1.45;;
39612;SDS011;25303;48.896;13.342;2022-10-15T13:06:11;1.80;;;1.60;;
39612;SDS011;25303;48.896;13.342;2022-10-15T13:08:58;1.45;;;1.35;;
39612;SDS011;25303;48.896;13.342;2022-10-15T13:11:48;1.83;;;1.40;;
39612;SDS011;25303;48.896;13.342;2022-10-15T13:14:33;1.10;;;1.00;;
39612;SDS011;25303;48.896;13.342;2022-10-15T13:17:22;1.10;;;1.00;;
39612;SDS011;25303;48.896;13.342;2022-10-15T13:20:06;1.05;;;0.95;;
39612;SDS011;25303;48.896;13.342;2022-10-15T13:23:09;1.17;;;1.08;;
39612;SDS011;25303;48.896;13.342;2022-10-15T13:26:11;1.60;;;1.50;;
39612;SDS011;25303;48.896;13.342;2022-10-15T13:28:59;1.73;;;1.45;;
39612;SDS011;25303;48.896;13.342;2022-10-15T13:31:43;1.58;;;1.48;;
39612;SDS011;25303;48.896;13.342;2022-10-15T13:34:26;2.75;;;1.60;;
39612;SDS011;25303;48.896;13.342;2022-10-15T13:37:12;1.85;;;1.48;;
39612;SDS011;25303;48.896;13.342;2022-10-15T13:40:00;2.05;;;1.58;;
39612;SDS011;25303;48.896;13.342;2022-10-15T13:42:58;1.98;;;1.40;;
39612;SDS011;25303;48.896;13.342;2022-10-15T13:45:46;1.42;;;1.30;;
39612;SDS011;25303;48.896;13.342;2022-10-15T13:48:30;2.20;;;1.70;;
39612;SDS011;25303;48.896;13.342;2022-10-15T13:51:14;2.63;;;1.65;;
39612;SDS011;25303;48.896;13.342;2022-10-15T13:53:57;1.25;;;1.13;;
39612;SDS011;25303;48.896;13.342;2022-10-15T13:59:30;1.05;;;0.95;;
39612;SDS011;25303;48.896;13.342;2022-10-15T14:02:15;1.67;;;1.45;;
39612;SDS011;25303;48.896;13.342;2022-10-15T14:07:58;2.78;;;1.42;;
39612;SDS011;25303;48.896;13.342;2022-10-15T14:10:41;1.30;;;1.20;;
39612;SDS011;25303;48.896;13.342;2022-10-15T14:13:25;2.53;;;1.10;;
39612;SDS011;25303;48.896;13.342;2022-10-15T14:16:12;1.30;;;1.20;;
39612;SDS011;25303;48.896;13.342;2022-10-15T14:19:07;1.63;;;1.33;;
39612;SDS011;25303;48.896;13.342;2022-10-15T14:21:52;2.20;;;1.60;;
39612;SDS011;25303;48.896;13.342;2022-10-15T14:24:36;2.45;;;1.85;;
39612;SDS011;25303;48.896;13.342;2022-10-15T14:27:22;2.17;;;1.83;;
39612;SDS011;25303;48.896;13.342;2022-10-15T14:30:11;3.75;;;2.13;;
39612;SDS011;25303;48.896;13.342;2022-10-15T14:32:56;2.65;;;1.80;;
39612;SDS011;25303;48.896;13.342;2022-10-15T14:35:41;2.30;;;1.63;;
39612;SDS011;25303;48.896;13.342;2022-10-15T14:38:24;1.58;;;1.42;;
39612;SDS011;25303;48.896;13.342;2022-10-15T14:41:20;2.27;;;1.50;;
39612;SDS011;25303;48.896;13.342;2022-10-15T14:44:15;1.60;;;1.48;;
39612;SDS011;25303;48.896;13.342;2022-10-15T14:47:00;1.50;;;1.40;;
39612;SDS011;25303;48.896;13.342;2022-10-15T14:49:44;1.90;;;1.50;;
39612;SDS011;25303;48.896;13.342;2022-10-15T14:52:29;3.17;;;2.65;;
39612;SDS011;25303;48.896;13.342;2022-10-15T14:55:15;3.63;;;2.53;;
39612;SDS011;25303;48.896;13.342;2022-10-15T14:58:08;2.57;;;2.10;;
39612;SDS011;25303;48.896;13.342;2022-10-15T15:00:56;2.22;;;1.80;;
39612;SDS011;25303;48.896;13.342;2022-10-15T15:03:41;2.75;;;1.70;;
39612;SDS011;25303;48.896;13.342;2022-10-15T15:06:27;1.60;;;1.50;;
39612;SDS011;25303;48.896;13.342;2022-10-15T15:09:12;3.08;;;1.30;;
39612;SDS011;25303;48.896;13.342;2022-10-15T15:11:55;2.00;;;1.40;;
39612;SDS011;25303;48.896;13.342;2022-10-15T15:14:38;2.88;;;1.98;;
39612;SDS011;25303;48.896;13.342;2022-10-15T15:17:22;4.32;;;3.35;;
39612;SDS011;25303;48.896;13.342;2022-10-15T15:20:06;4.53;;;2.88;;
39612;SDS011;25303;48.896;13.342;2022-10-15T15:22:52;2.97;;;1.90;;
39612;SDS011;25303;48.896;13.342;2022-10-15T15:25:37;1.20;;;1.10;;
39612;SDS011;25303;48.896;13.342;2022-10-15T15:28:22;1.10;;;1.00;;
39612;SDS011;25303;48.896;13.342;2022-10-15T15:31:07;4.68;;;3.60;;
39612;SDS011;25303;48.896;13.342;2022-10-15T15:33:55;4.97;;;4.13;;
39612;SDS011;25303;48.896;13.342;2022-10-15T15:36:38;6.00;;;4.55;;
39612;SDS011;25303;48.896;13.342;2022-10-15T15:39:20;6.35;;;4.60;;
39612;SDS011;25303;48.896;13.342;2022-10-15T15:42:05;7.72;;;5.43;;
39612;SDS011;25303;48.896;13.342;2022-10-15T15:44:48;5.13;;;4.20;;
39612;SDS011;25303;48.896;13.342;2022-10-15T15:47:31;3.63;;;3.03;;
39612;SDS011;25303;48.896;13.342;2022-10-15T15:50:14;3.47;;;2.17;;
39612;SDS011;25303;48.896;13.342;2022-10-15T15:52:58;1.55;;;1.42;;
39612;SDS011;25303;48.896;13.342;2022-10-15T15:55:41;1.52;;;1.30;;
39612;SDS011;25303;48.896;13.342;2022-10-15T15:58:25;1.13;;;1.02;;
39612;SDS011;25303;48.896;13.342;2022-10-15T16:01:08;1.52;;;1.30;;
39612;SDS011;25303;48.896;13.342;2022-10-15T16:03:51;1.27;;;1.05;;
39612;SDS011;25303;48.896;13.342;2022-10-15T16:06:34;0.68;;;0.68;;
39612;SDS011;25303;48.896;13.342;2022-10-15T16:09:17;0.90;;;0.73;;
39612;SDS011;25303;48.896;13.342;2022-10-15T16:12:02;1.17;;;0.75;;
39612;SDS011;25303;48.896;13.342;2022-10-15T16:14:47;2.40;;;0.90;;
39612;SDS011;25303;48.896;13.342;2022-10-15T16:17:30;1.50;;;0.90;;
39612;SDS011;25303;48.896;13.342;2022-10-15T16:20:13;0.82;;;0.75;;
39612;SDS011;25303;48.896;13.342;2022-10-15T16:22:56;0.70;;;0.70;;
39612;SDS011;25303;48.896;13.342;2022-10-15T16:25:39;1.30;;;0.90;;
39612;SDS011;25303;48.896;13.342;2022-10-15T16:28:22;2.05;;;1.48;;
39612;SDS011;25303;48.896;13.342;2022-10-15T16:31:13;3.53;;;1.40;;
39612;SDS011;25303;48.896;13.342;2022-10-15T16:33:57;3.13;;;1.15;;
39612;SDS011;25303;48.896;13.342;2022-10-15T16:36:40;1.48;;;1.10;;
39612;SDS011;25303;48.896;13.342;2022-10-15T16:39:23;2.72;;;1.00;;
39612;SDS011;25303;48.896;13.342;2022-10-15T16:42:06;1.05;;;0.85;;
39612;SDS011;25303;48.896;13.342;2022-10-15T16:44:49;0.80;;;0.70;;
39612;SDS011;25303;48.896;13.342;2022-10-15T16:47:34;1.17;;;0.95;;
39612;SDS011;25303;48.896;13.342;2022-10-15T16:50:17;0.93;;;0.80;;
39612;SDS011;25303;48.896;13.342;2022-10-15T16:53:00;1.17;;;0.70;;
39612;SDS011;25303;48.896;13.342;2022-10-15T16:55:44;1.48;;;0.88;;
39612;SDS011;25303;48.896;13.342;2022-10-15T16:58:27;1.52;;;0.70;;